createdAt,value
2022-09-17T00:02:40.114Z,3.65
2022-09-17T00:07:39.052Z,2.83
2022-09-17T00:12:37.865Z,4.25
2022-09-17T00:17:36.685Z,8.15
2022-09-17T00:22:36.873Z,2.97
2022-09-17T00:27:35.670Z,5.72
2022-09-17T00:32:34.520Z,4.05
2022-09-17T00:37:33.322Z,4.60
2022-09-17T00:42:33.717Z,5.28
2022-09-17T00:47:36.410Z,5.43
2022-09-17T00:52:38.844Z,2.22
2022-09-17T00:57:39.341Z,5.35
2022-09-17T01:02:39.809Z,3.95
2022-09-17T01:07:56.209Z,4.53
2022-09-17T01:13:09.060Z,5.00
2022-09-17T01:18:23.147Z,4.90
2022-09-17T01:23:59.939Z,4.55
2022-09-17T01:29:13.900Z,4.95
2022-09-17T01:34:24.579Z,5.90
2022-09-17T01:39:36.183Z,6.88
2022-09-17T01:44:41.830Z,3.88
2022-09-17T01:49:42.256Z,8.85
2022-09-17T01:54:44.962Z,6.18
2022-09-17T01:59:47.321Z,5.75
2022-09-17T02:04:53.788Z,5.13
2022-09-17T02:09:58.090Z,6.85
2022-09-17T02:15:00.305Z,4.53
2022-09-17T02:20:02.289Z,5.57
2022-09-17T02:25:07.913Z,6.38
2022-09-17T02:30:08.068Z,5.05
2022-09-17T02:35:09.512Z,9.90
2022-09-17T02:40:10.734Z,3.58
2022-09-17T02:45:25.278Z,4.93
2022-09-17T02:50:38.770Z,9.45
2022-09-17T02:55:43.261Z,6.18
2022-09-17T03:00:43.779Z,12.20
2022-09-17T03:05:47.927Z,6.85
2022-09-17T03:10:49.086Z,7.77
2022-09-17T03:15:48.086Z,11.02
2022-09-17T03:20:52.587Z,10.40
2022-09-17T03:25:52.215Z,15.98
2022-09-17T03:30:51.059Z,11.35
2022-09-17T03:35:51.231Z,13.77
2022-09-17T03:40:59.170Z,11.57
2022-09-17T03:45:58.014Z,9.77
2022-09-17T03:50:58.304Z,11.20
2022-09-17T03:55:59.569Z,9.57
2022-09-17T04:00:58.830Z,12.30
2022-09-17T04:06:01.867Z,14.00
2022-09-17T04:11:00.674Z,9.63
2022-09-17T04:15:59.444Z,11.05
2022-09-17T04:20:58.578Z,10.50
2022-09-17T04:25:58.875Z,14.15
2022-09-17T04:30:57.838Z,7.03
2022-09-17T04:35:56.800Z,12.18
2022-09-17T04:40:57.438Z,11.57
2022-09-17T04:45:57.737Z,8.07
2022-09-17T04:50:56.539Z,7.20
2022-09-17T04:55:55.333Z,9.02
2022-09-17T05:00:54.066Z,16.33
2022-09-17T05:05:54.188Z,9.27
2022-09-17T05:10:53.358Z,9.32
2022-09-17T05:15:52.122Z,11.73
2022-09-17T05:20:50.980Z,8.13
2022-09-17T05:25:52.977Z,9.55
2022-09-17T05:30:51.884Z,9.95
2022-09-17T05:35:50.704Z,9.68
2022-09-17T05:40:51.018Z,19.85
2022-09-17T05:45:49.939Z,9.75
2022-09-17T05:50:48.938Z,13.55
2022-09-17T05:55:47.647Z,12.98
2022-09-17T06:00:49.048Z,7.95
2022-09-17T06:05:55.191Z,12.48
2022-09-17T06:10:54.080Z,10.68
2022-09-17T06:15:55.126Z,8.90
2022-09-17T06:20:55.354Z,20.27
2022-09-17T06:25:55.815Z,13.10
2022-09-17T06:30:57.388Z,11.73
2022-09-17T06:36:00.792Z,11.13
2022-09-17T06:41:02.816Z,10.20
2022-09-17T06:46:05.731Z,13.80
2022-09-17T06:51:05.772Z,12.38
2022-09-17T06:56:06.670Z,12.85
2022-09-17T07:01:07.622Z,23.50
2022-09-17T07:06:10.174Z,14.47
2022-09-17T07:11:09.330Z,16.10
2022-09-17T07:16:09.635Z,8.43
2022-09-17T07:21:09.294Z,13.38
2022-09-17T07:26:10.194Z,12.63
2022-09-17T07:31:15.869Z,11.50
2022-09-17T07:36:18.026Z,17.67
2022-09-17T07:41:18.873Z,12.48
2022-09-17T07:46:21.341Z,11.60
2022-09-17T07:51:22.026Z,12.55
2022-09-17T07:56:20.938Z,11.27
2022-09-17T08:01:22.811Z,13.07
2022-09-17T08:06:24.493Z,12.18
2022-09-17T08:11:54.589Z,13.75
2022-09-17T08:16:47.575Z,14.07
2022-09-17T08:21:46.501Z,13.90
2022-09-17T08:26:45.315Z,9.98
2022-09-17T08:31:45.562Z,12.80
2022-09-17T08:36:44.779Z,15.93
2022-09-17T08:41:53.912Z,7.47
2022-09-17T08:46:59.664Z,12.75
2022-09-17T08:52:28.134Z,13.95
2022-09-17T08:57:34.955Z,9.35
2022-09-17T09:02:56.240Z,12.02
2022-09-17T09:08:02.869Z,14.88
2022-09-17T09:13:03.210Z,15.48
2022-09-17T09:18:14.280Z,8.90
2022-09-17T09:23:19.662Z,7.78
2022-09-17T09:28:39.239Z,11.05
2022-09-17T09:33:46.998Z,15.82
2022-09-17T09:38:57.911Z,13.07
2022-09-17T09:44:05.048Z,12.37
2022-09-17T09:49:18.897Z,12.27
2022-09-17T09:54:31.943Z,11.88
2022-09-17T09:59:30.979Z,10.00
2022-09-17T10:04:32.574Z,12.63
2022-09-17T10:09:32.942Z,6.15
2022-09-17T10:14:33.270Z,5.60
2022-09-17T10:19:33.445Z,4.93
2022-09-17T10:24:34.651Z,4.87
2022-09-17T10:29:34.556Z,5.05
2022-09-17T10:34:35.779Z,4.93
2022-09-17T10:39:36.782Z,3.05
2022-09-17T10:49:43.825Z,6.43
2022-09-17T10:55:13.973Z,8.52
2022-09-17T11:00:18.412Z,6.28
2022-09-17T11:05:40.116Z,4.43
2022-09-17T11:10:47.148Z,9.60
2022-09-17T11:15:58.142Z,9.35
2022-09-17T11:21:18.358Z,10.02
2022-09-17T11:26:29.312Z,11.10
2022-09-17T11:31:38.969Z,10.88
2022-09-17T11:36:47.411Z,8.32
2022-09-17T11:41:50.103Z,6.43
2022-09-17T11:46:52.776Z,7.60
2022-09-17T11:51:58.220Z,6.40
2022-09-17T11:57:06.490Z,5.95
2022-09-17T12:07:33.005Z,5.03
2022-09-17T12:12:48.965Z,11.85
2022-09-17T12:18:27.375Z,7.78
2022-09-17T12:23:26.116Z,6.32
2022-09-17T12:28:32.474Z,6.88
2022-09-17T12:34:00.030Z,8.60
2022-09-17T12:44:45.210Z,5.43
2022-09-17T12:50:07.774Z,13.18
2022-09-17T12:55:35.005Z,10.10
2022-09-17T13:00:45.323Z,9.45
2022-09-17T13:06:16.272Z,8.77
2022-09-17T13:11:51.388Z,8.97
2022-09-17T13:17:09.765Z,8.32
2022-09-17T13:22:34.177Z,8.38
2022-09-17T13:27:40.440Z,10.23
2022-09-17T13:33:04.945Z,7.15
2022-09-17T13:38:24.615Z,5.35
2022-09-17T13:43:32.936Z,8.02
2022-09-17T13:48:42.392Z,9.80
2022-09-17T13:53:54.674Z,8.85
2022-09-17T13:59:00.833Z,7.75
2022-09-17T14:04:06.640Z,8.88
2022-09-17T14:09:47.538Z,7.38
2022-09-17T14:14:53.460Z,9.98
2022-09-17T14:20:48.654Z,9.65
2022-09-17T14:25:53.835Z,5.22
2022-09-17T14:30:54.346Z,6.35
2022-09-17T14:35:57.764Z,9.63
2022-09-17T14:41:08.092Z,5.80
2022-09-17T14:46:23.787Z,6.03
2022-09-17T14:51:29.693Z,5.95
2022-09-17T14:56:28.791Z,6.63
2022-09-17T15:01:31.489Z,4.90
2022-09-17T15:06:30.731Z,4.88
2022-09-17T15:11:31.065Z,8.23
2022-09-17T15:16:33.570Z,6.60
2022-09-17T15:21:37.244Z,7.43
2022-09-17T15:26:39.731Z,12.45
2022-09-17T15:31:41.160Z,4.75
2022-09-17T15:37:06.830Z,7.20
2022-09-17T15:42:06.164Z,9.10
2022-09-17T15:47:38.375Z,4.85
2022-09-17T15:52:37.267Z,6.43
2022-09-17T15:57:36.325Z,4.20
2022-09-17T16:02:35.382Z,7.55
2022-09-17T16:07:35.913Z,4.60
2022-09-17T16:12:35.050Z,4.38
2022-09-17T16:17:43.569Z,6.25
2022-09-17T16:22:44.330Z,7.55
2022-09-17T16:27:53.175Z,7.13
2022-09-17T16:32:53.100Z,6.07
2022-09-17T16:37:54.985Z,7.00
2022-09-17T16:42:54.085Z,9.70
2022-09-17T16:47:53.439Z,9.07
2022-09-17T16:52:54.745Z,8.52
2022-09-17T16:57:55.100Z,12.50
2022-09-17T17:02:55.863Z,18.33
2022-09-17T17:08:05.936Z,8.03
2022-09-17T17:13:07.991Z,8.13
2022-09-17T17:18:07.428Z,8.27
2022-09-17T17:23:08.324Z,8.73
2022-09-17T17:28:07.556Z,5.25
2022-09-17T17:33:07.192Z,9.60
2022-09-17T17:38:14.803Z,5.15
2022-09-17T17:43:18.900Z,7.65
2022-09-17T17:48:25.919Z,5.50
2022-09-17T17:53:34.939Z,7.55
2022-09-17T17:58:45.215Z,4.47
2022-09-17T18:03:44.657Z,7.13
2022-09-17T18:08:46.620Z,3.22
2022-09-17T18:13:45.631Z,4.68
2022-09-17T18:18:53.854Z,5.60
2022-09-17T18:23:55.198Z,5.00
2022-09-17T18:29:12.967Z,5.10
2022-09-17T18:34:25.352Z,5.43
2022-09-17T18:39:57.617Z,7.82
2022-09-17T18:44:45.214Z,3.50
2022-09-17T18:49:44.400Z,8.07
2022-09-17T18:54:46.088Z,4.25
2022-09-17T19:04:44.449Z,7.63
2022-09-17T19:09:47.463Z,5.78
2022-09-17T19:14:49.397Z,16.13
2022-09-17T19:24:48.356Z,7.13
2022-09-17T19:29:47.387Z,3.35
2022-09-17T19:34:46.268Z,5.80
2022-09-17T19:39:45.295Z,6.25
2022-09-17T19:44:45.640Z,3.05
2022-09-17T19:49:46.492Z,2.88
2022-09-17T19:54:47.091Z,3.83
2022-09-17T19:59:47.916Z,5.18
2022-09-17T20:04:47.082Z,2.72
2022-09-17T20:09:46.182Z,0.80
2022-09-17T20:14:45.086Z,2.95
2022-09-17T20:19:45.234Z,3.78
2022-09-17T20:24:46.593Z,3.90
2022-09-17T20:29:49.131Z,11.30
2022-09-17T20:34:50.087Z,4.75
2022-09-17T20:39:49.465Z,2.73
2022-09-17T20:44:48.241Z,3.67
2022-09-17T20:49:47.141Z,4.82
2022-09-17T20:54:47.729Z,8.25
2022-09-17T20:59:53.282Z,4.45
2022-09-17T21:04:53.781Z,5.57
2022-09-17T21:09:54.066Z,4.72
2022-09-17T21:14:52.942Z,5.05
2022-09-17T21:19:52.646Z,2.78
2022-09-17T21:24:51.565Z,7.75
2022-09-17T21:29:51.854Z,1.83
2022-09-17T21:34:50.995Z,2.97
2022-09-17T21:39:49.795Z,1.58
2022-09-17T21:44:48.676Z,1.50
2022-09-17T21:49:49.424Z,1.95
2022-09-17T21:54:48.234Z,1.05
2022-09-17T21:59:47.038Z,1.60
2022-09-17T22:04:45.853Z,1.40
2022-09-17T22:09:46.052Z,1.88
2022-09-17T22:14:44.935Z,1.58
2022-09-17T22:19:43.971Z,0.88
2022-09-17T22:24:44.570Z,2.38
2022-09-17T22:29:44.756Z,2.25
2022-09-17T22:34:43.525Z,2.22
2022-09-17T22:39:42.252Z,1.13
2022-09-17T22:44:41.165Z,3.35
2022-09-17T22:49:41.553Z,2.50
2022-09-17T22:54:41.177Z,2.15
2022-09-17T22:59:39.972Z,4.97
2022-09-17T23:04:40.313Z,1.15
2022-09-17T23:09:39.230Z,0.68
2022-09-17T23:14:41.321Z,3.10
2022-09-17T23:19:41.582Z,1.83
2022-09-17T23:24:40.350Z,1.90
2022-09-17T23:29:39.204Z,0.57
2022-09-17T23:34:40.943Z,2.20
2022-09-17T23:39:42.044Z,1.48
2022-09-17T23:44:41.072Z,4.00
2022-09-17T23:49:39.859Z,2.95
2022-09-17T23:54:40.159Z,3.90
2022-09-17T23:59:39.229Z,1.13
